createdAt,value
2023-03-29T00:00:08.156Z,2.60
2023-03-29T00:02:39.163Z,2.72
2023-03-29T00:05:07.443Z,2.60
2023-03-29T00:07:34.667Z,3.10
2023-03-29T00:10:04.705Z,2.53
2023-03-29T00:12:32.784Z,2.63
2023-03-29T00:14:59.927Z,2.80
2023-03-29T00:17:26.817Z,3.00
2023-03-29T00:19:53.753Z,2.97
2023-03-29T00:22:21.380Z,2.70
2023-03-29T00:24:49.210Z,2.60
2023-03-29T00:27:16.536Z,2.50
2023-03-29T00:29:43.585Z,3.00
2023-03-29T00:32:10.590Z,2.80
2023-03-29T00:34:37.716Z,2.67
2023-03-29T00:37:08.845Z,2.88
2023-03-29T00:39:36.914Z,2.75
2023-03-29T00:42:04.164Z,2.70
2023-03-29T00:44:57.567Z,3.10
2023-03-29T00:47:33.221Z,2.78
2023-03-29T00:50:22.379Z,3.03
2023-03-29T00:53:21.779Z,3.00
2023-03-29T00:55:57.701Z,2.80
2023-03-29T00:58:47.655Z,2.97
2023-03-29T01:01:21.191Z,2.70
2023-03-29T01:04:04.301Z,2.73
2023-03-29T01:06:39.228Z,2.55
2023-03-29T01:09:12.628Z,2.78
2023-03-29T01:11:53.105Z,3.08
2023-03-29T01:14:35.158Z,2.80
2023-03-29T01:17:02.751Z,3.10
2023-03-29T01:19:38.946Z,3.40
2023-03-29T01:22:28.233Z,3.00
2023-03-29T01:25:12.454Z,2.95
2023-03-29T01:28:10.635Z,3.10
2023-03-29T01:30:55.370Z,3.08
2023-03-29T01:33:34.052Z,2.85
2023-03-29T01:36:23.289Z,3.28
2023-03-29T01:38:57.052Z,2.90
2023-03-29T01:41:45.614Z,2.80
2023-03-29T01:44:56.339Z,3.15
2023-03-29T01:47:47.286Z,2.67
2023-03-29T01:50:37.147Z,3.03
2023-03-29T01:53:34.098Z,2.90
2023-03-29T01:56:37.851Z,2.97
2023-03-29T01:59:14.678Z,3.00
2023-03-29T02:01:49.647Z,2.83
2023-03-29T02:04:25.922Z,2.75
2023-03-29T02:06:57.655Z,2.80
2023-03-29T02:09:24.801Z,2.60
2023-03-29T02:11:53.697Z,2.42
2023-03-29T02:14:21.297Z,2.50
2023-03-29T02:16:49.575Z,2.70
2023-03-29T02:19:19.573Z,2.65
2023-03-29T02:21:58.289Z,2.80
2023-03-29T02:24:28.218Z,2.75
2023-03-29T02:26:55.222Z,3.13
2023-03-29T02:29:22.221Z,2.78
2023-03-29T02:32:04.714Z,3.10
2023-03-29T02:34:47.696Z,3.10
2023-03-29T02:37:20.692Z,2.90
2023-03-29T02:39:52.448Z,3.38
2023-03-29T02:42:20.579Z,3.10
2023-03-29T02:44:54.511Z,3.08
2023-03-29T02:47:32.027Z,3.53
2023-03-29T02:50:00.525Z,3.22
2023-03-29T02:52:39.355Z,3.20
2023-03-29T02:55:16.199Z,2.92
2023-03-29T02:57:43.924Z,3.20
2023-03-29T03:00:14.604Z,3.20
2023-03-29T03:02:41.922Z,3.38
2023-03-29T03:05:10.585Z,3.58
2023-03-29T03:07:40.513Z,3.30
2023-03-29T03:10:10.363Z,3.53
2023-03-29T03:12:38.627Z,3.28
2023-03-29T03:15:06.720Z,3.55
2023-03-29T03:17:34.006Z,3.10
2023-03-29T03:20:01.144Z,3.40
2023-03-29T03:22:28.551Z,3.50
2023-03-29T03:24:56.303Z,3.38
2023-03-29T03:27:23.240Z,2.90
2023-03-29T03:29:50.524Z,3.42
2023-03-29T03:32:17.527Z,2.92
2023-03-29T03:35:08.805Z,3.35
2023-03-29T03:37:35.870Z,3.10
2023-03-29T03:40:03.729Z,3.28
2023-03-29T03:42:30.925Z,3.22
2023-03-29T03:44:58.837Z,3.28
2023-03-29T03:47:29.310Z,3.30
2023-03-29T03:49:58.699Z,3.13
2023-03-29T03:52:27.031Z,3.35
2023-03-29T03:54:54.004Z,3.50
2023-03-29T03:57:44.153Z,3.90
2023-03-29T04:00:21.466Z,3.50
2023-03-29T04:03:10.838Z,3.30
2023-03-29T04:05:44.609Z,3.47
2023-03-29T04:08:13.311Z,3.40
2023-03-29T04:11:07.609Z,3.47
2023-03-29T04:13:37.540Z,3.92
2023-03-29T04:16:21.773Z,3.40
2023-03-29T04:18:49.685Z,3.50
2023-03-29T04:21:18.324Z,3.78
2023-03-29T04:23:48.840Z,3.63
2023-03-29T04:26:17.727Z,3.70
2023-03-29T04:28:50.534Z,3.28
2023-03-29T04:31:22.972Z,3.20
2023-03-29T04:34:22.582Z,3.53
2023-03-29T04:36:53.967Z,3.40
2023-03-29T04:39:31.940Z,3.40
2023-03-29T04:42:00.154Z,3.30
2023-03-29T04:44:29.879Z,3.17
2023-03-29T04:47:00.921Z,2.95
2023-03-29T04:49:47.465Z,3.22
2023-03-29T04:52:24.514Z,3.25
2023-03-29T04:54:52.479Z,3.33
2023-03-29T04:57:33.447Z,2.60
2023-03-29T05:00:20.366Z,2.88
2023-03-29T05:03:14.629Z,3.22
2023-03-29T05:05:54.459Z,3.08
2023-03-29T05:08:21.723Z,3.20
2023-03-29T05:11:11.571Z,2.80
2023-03-29T05:13:38.639Z,3.13
2023-03-29T05:16:07.708Z,3.67
2023-03-29T05:18:35.670Z,3.10
2023-03-29T05:21:04.979Z,3.15
2023-03-29T05:23:34.384Z,3.10
2023-03-29T05:26:23.203Z,3.22
2023-03-29T05:28:53.395Z,3.08
2023-03-29T05:31:20.491Z,3.05
2023-03-29T05:33:52.684Z,3.03
2023-03-29T05:36:21.429Z,3.28
2023-03-29T05:38:50.753Z,3.53
2023-03-29T05:41:21.352Z,3.10
2023-03-29T05:44:21.252Z,3.00
2023-03-29T05:46:54.178Z,3.40
2023-03-29T05:49:21.932Z,3.35
2023-03-29T05:52:09.414Z,3.53
2023-03-29T05:54:37.881Z,3.78
2023-03-29T05:57:06.359Z,3.03
2023-03-29T05:59:33.908Z,3.40
2023-03-29T06:02:03.523Z,3.33
2023-03-29T06:04:31.938Z,3.30
2023-03-29T06:07:32.054Z,3.08
2023-03-29T06:10:23.682Z,3.40
2023-03-29T06:12:57.958Z,2.78
2023-03-29T06:15:26.415Z,3.42
2023-03-29T06:18:03.622Z,3.30
2023-03-29T06:20:31.121Z,3.58
2023-03-29T06:23:03.969Z,3.08
2023-03-29T06:25:31.782Z,3.42
2023-03-29T06:27:58.949Z,2.97
2023-03-29T06:30:25.965Z,3.92
2023-03-29T06:32:55.865Z,5.43
2023-03-29T06:35:50.183Z,4.43
2023-03-29T06:38:22.699Z,6.18
2023-03-29T06:43:54.997Z,6.38
2023-03-29T06:46:25.282Z,6.70
2023-03-29T06:49:01.539Z,7.45
2023-03-29T06:51:43.218Z,7.50
2023-03-29T06:54:11.650Z,7.10
2023-03-29T06:59:20.620Z,6.53
2023-03-29T07:01:57.472Z,5.60
2023-03-29T07:05:01.417Z,8.15
2023-03-29T07:07:44.067Z,6.35
2023-03-29T07:10:30.145Z,8.73
2023-03-29T07:13:23.592Z,7.80
2023-03-29T07:15:52.468Z,7.03
2023-03-29T07:18:22.274Z,7.82
2023-03-29T07:20:49.566Z,6.60
2023-03-29T07:23:17.968Z,5.28
2023-03-29T07:25:46.961Z,4.75
2023-03-29T07:28:14.200Z,3.97
2023-03-29T07:30:41.381Z,3.90
2023-03-29T07:33:14.277Z,4.82
2023-03-29T07:35:57.249Z,4.50
2023-03-29T07:38:25.274Z,3.80
2023-03-29T07:40:59.667Z,4.65
2023-03-29T07:43:42.980Z,4.50
2023-03-29T07:46:11.770Z,3.75
2023-03-29T07:48:39.868Z,3.75
2023-03-29T07:51:09.468Z,3.22
2023-03-29T07:53:49.684Z,3.78
2023-03-29T07:56:43.002Z,3.38
2023-03-29T07:59:12.594Z,4.20
2023-03-29T08:01:42.317Z,3.63
2023-03-29T08:04:32.540Z,3.55
2023-03-29T08:07:20.018Z,3.40
2023-03-29T08:10:09.127Z,3.40
2023-03-29T08:12:59.181Z,3.63
2023-03-29T08:15:39.467Z,3.65
2023-03-29T08:18:18.646Z,3.60
2023-03-29T08:20:45.691Z,3.70
2023-03-29T08:23:12.810Z,3.42
2023-03-29T08:25:39.862Z,3.63
2023-03-29T08:28:06.895Z,3.63
2023-03-29T08:30:45.691Z,3.88
2023-03-29T08:33:13.249Z,4.22
2023-03-29T08:35:41.703Z,3.88
2023-03-29T08:38:21.777Z,3.60
2023-03-29T08:40:50.234Z,3.60
2023-03-29T08:43:58.662Z,3.90
2023-03-29T08:47:46.086Z,3.92
2023-03-29T08:50:15.087Z,4.45
2023-03-29T08:52:57.514Z,4.60
2023-03-29T08:56:11.723Z,4.18
2023-03-29T08:59:17.326Z,3.85
2023-03-29T09:01:48.650Z,3.90
2023-03-29T09:04:31.676Z,4.28
2023-03-29T09:07:11.884Z,4.30
2023-03-29T09:09:44.042Z,4.32
2023-03-29T09:12:42.758Z,4.50
2023-03-29T09:15:15.424Z,4.15
2023-03-29T09:18:11.337Z,4.00
2023-03-29T09:20:50.268Z,4.35
2023-03-29T09:23:44.581Z,4.40
2023-03-29T09:26:45.007Z,4.68
2023-03-29T09:30:11.100Z,4.32
2023-03-29T09:33:15.431Z,3.78
2023-03-29T09:36:23.637Z,4.28
2023-03-29T09:38:54.370Z,3.65
2023-03-29T09:41:43.540Z,3.88
2023-03-29T09:44:30.248Z,4.00
2023-03-29T09:47:26.319Z,3.72
2023-03-29T09:50:23.064Z,3.90
2023-03-29T09:52:55.234Z,3.42
2023-03-29T09:55:31.064Z,3.60
2023-03-29T09:58:31.647Z,3.78
2023-03-29T10:01:03.064Z,4.25
2023-03-29T10:03:34.935Z,4.30
2023-03-29T10:06:14.606Z,4.13
2023-03-29T10:08:52.781Z,3.80
2023-03-29T10:11:28.865Z,3.75
2023-03-29T10:14:11.629Z,3.85
2023-03-29T10:16:42.178Z,4.35
2023-03-29T10:19:16.959Z,3.58
2023-03-29T10:21:44.022Z,3.80
2023-03-29T10:24:11.444Z,3.60
2023-03-29T10:26:39.051Z,4.20
2023-03-29T10:29:08.317Z,3.72
2023-03-29T10:31:41.541Z,3.78
2023-03-29T10:34:15.208Z,3.30
2023-03-29T10:36:53.534Z,4.53
2023-03-29T10:39:21.114Z,3.92
2023-03-29T10:41:52.792Z,4.30
2023-03-29T10:44:32.877Z,4.22
2023-03-29T10:47:21.500Z,4.10
2023-03-29T10:49:58.952Z,4.38
2023-03-29T10:52:26.646Z,4.75
2023-03-29T10:54:56.541Z,4.72
2023-03-29T10:57:41.874Z,4.88
2023-03-29T11:00:27.403Z,5.03
2023-03-29T11:03:22.673Z,4.70
2023-03-29T11:06:36.207Z,4.60
2023-03-29T11:09:42.229Z,4.57
2023-03-29T11:12:34.562Z,4.30
2023-03-29T11:15:48.012Z,4.95
2023-03-29T11:19:06.764Z,5.28
2023-03-29T11:21:49.985Z,4.65
2023-03-29T11:24:37.896Z,4.95
2023-03-29T11:27:14.030Z,4.47
2023-03-29T11:30:15.719Z,4.40
2023-03-29T11:33:08.964Z,4.68
2023-03-29T11:36:01.655Z,4.40
2023-03-29T11:38:37.760Z,4.60
2023-03-29T11:41:29.339Z,3.97
2023-03-29T11:44:11.427Z,4.00
2023-03-29T11:47:10.205Z,4.13
2023-03-29T11:49:57.355Z,4.40
2023-03-29T11:52:33.698Z,4.55
2023-03-29T11:55:19.257Z,4.90
2023-03-29T11:58:06.050Z,4.20
2023-03-29T12:00:40.492Z,4.50
2023-03-29T12:03:41.159Z,4.38
2023-03-29T12:06:22.364Z,5.15
2023-03-29T12:09:34.225Z,4.22
2023-03-29T12:12:29.328Z,4.18
2023-03-29T12:15:07.219Z,4.50
2023-03-29T12:17:51.471Z,4.55
2023-03-29T12:20:26.972Z,4.10
2023-03-29T12:22:55.604Z,3.50
2023-03-29T12:25:34.512Z,4.05
2023-03-29T12:28:33.243Z,4.10
2023-03-29T12:31:22.596Z,4.07
2023-03-29T12:34:04.784Z,4.47
2023-03-29T12:37:32.020Z,3.72
2023-03-29T12:40:22.975Z,4.15
2023-03-29T12:43:31.464Z,4.10
2023-03-29T12:46:33.487Z,4.60
2023-03-29T12:49:13.100Z,4.30
2023-03-29T12:51:42.728Z,4.50
2023-03-29T12:54:20.816Z,4.00
2023-03-29T12:56:56.489Z,4.07
2023-03-29T12:59:48.265Z,4.13
2023-03-29T13:02:15.257Z,3.97
2023-03-29T13:04:54.495Z,4.35
2023-03-29T13:07:26.333Z,4.65
2023-03-29T13:10:01.364Z,3.70
2023-03-29T13:12:46.001Z,3.50
2023-03-29T13:15:16.904Z,3.50
2023-03-29T13:18:06.988Z,3.55
2023-03-29T13:20:57.075Z,3.67
2023-03-29T13:24:16.866Z,3.80
2023-03-29T13:27:22.197Z,3.50
2023-03-29T13:30:00.343Z,3.58
2023-03-29T13:32:46.426Z,3.78
2023-03-29T13:35:51.117Z,3.70
2023-03-29T13:38:26.257Z,3.90
2023-03-29T13:40:53.166Z,3.53
2023-03-29T13:43:25.125Z,3.63
2023-03-29T13:45:58.144Z,3.33
2023-03-29T13:48:29.508Z,3.85
2023-03-29T13:51:21.750Z,3.70
2023-03-29T13:53:58.324Z,3.20
2023-03-29T13:56:37.085Z,2.97
2023-03-29T13:59:23.889Z,3.28
2023-03-29T14:02:00.487Z,2.97
2023-03-29T14:04:44.968Z,2.95
2023-03-29T14:09:49.709Z,2.60
2023-03-29T14:12:17.604Z,3.10
2023-03-29T14:14:58.349Z,2.75
2023-03-29T14:17:26.985Z,2.78
2023-03-29T14:20:00.996Z,2.45
2023-03-29T14:22:33.978Z,2.67
2023-03-29T14:25:11.822Z,3.00
2023-03-29T14:27:38.789Z,2.80
2023-03-29T14:30:36.200Z,2.13
2023-03-29T14:33:05.142Z,2.28
2023-03-29T14:35:33.438Z,2.22
2023-03-29T14:38:01.701Z,1.75
2023-03-29T14:40:31.000Z,2.00
2023-03-29T14:43:05.297Z,1.73
2023-03-29T14:45:32.716Z,1.83
2023-03-29T14:48:00.608Z,1.90
2023-03-29T14:50:31.114Z,1.90
2023-03-29T14:53:01.464Z,1.80
2023-03-29T14:55:28.799Z,2.28
2023-03-29T14:57:56.488Z,2.03
2023-03-29T15:00:42.367Z,1.95
2023-03-29T15:03:15.883Z,2.33
2023-03-29T15:05:51.973Z,2.45
2023-03-29T15:08:39.164Z,2.67
2023-03-29T15:11:16.848Z,2.55
2023-03-29T15:13:46.633Z,3.30
2023-03-29T15:16:19.728Z,2.78
2023-03-29T15:18:52.278Z,2.15
2023-03-29T15:21:21.961Z,2.88
2023-03-29T15:24:01.092Z,2.20
2023-03-29T15:26:37.412Z,2.40
2023-03-29T15:29:16.848Z,2.35
2023-03-29T15:31:56.922Z,2.53
2023-03-29T15:34:32.770Z,2.90
2023-03-29T15:37:01.776Z,2.47
2023-03-29T15:39:29.485Z,2.53
2023-03-29T15:41:58.193Z,2.40
2023-03-29T15:44:38.696Z,2.75
2023-03-29T15:47:13.288Z,2.70
2023-03-29T15:49:40.368Z,2.38
2023-03-29T15:52:07.270Z,2.58
2023-03-29T15:54:36.650Z,2.13
2023-03-29T15:57:12.406Z,2.20
2023-03-29T15:59:39.724Z,2.80
2023-03-29T16:02:13.485Z,2.72
2023-03-29T16:04:40.668Z,2.72
2023-03-29T16:07:14.952Z,2.38
2023-03-29T16:09:43.273Z,2.60
2023-03-29T16:12:12.347Z,2.88
2023-03-29T16:14:39.569Z,2.70
2023-03-29T16:17:06.954Z,2.90
2023-03-29T16:19:34.427Z,2.70
2023-03-29T16:22:07.066Z,2.50
2023-03-29T16:24:35.615Z,2.42
2023-03-29T16:27:03.868Z,2.30
2023-03-29T16:29:31.070Z,2.50
2023-03-29T16:31:58.336Z,2.35
2023-03-29T16:34:26.108Z,2.55
2023-03-29T16:36:53.627Z,3.20
2023-03-29T16:39:20.844Z,3.30
2023-03-29T16:41:49.955Z,3.22
2023-03-29T16:44:23.659Z,3.60
2023-03-29T16:49:24.584Z,3.53
2023-03-29T16:51:51.548Z,3.40
2023-03-29T16:54:18.997Z,3.40
2023-03-29T16:56:46.947Z,2.97
2023-03-29T16:59:14.252Z,3.03
2023-03-29T17:01:41.310Z,3.00
2023-03-29T17:04:09.272Z,3.28
2023-03-29T17:06:36.515Z,3.67
2023-03-29T17:09:05.033Z,3.97
2023-03-29T17:11:32.564Z,5.90
2023-03-29T17:14:00.171Z,5.63
2023-03-29T17:16:29.012Z,5.43
2023-03-29T17:19:02.305Z,6.10
2023-03-29T17:21:30.758Z,3.92
2023-03-29T17:23:57.709Z,3.33
2023-03-29T17:26:24.629Z,3.80
2023-03-29T17:28:51.792Z,3.40
2023-03-29T17:31:19.413Z,3.67
2023-03-29T17:33:47.318Z,4.00
2023-03-29T17:36:14.593Z,3.67
2023-03-29T17:38:42.733Z,3.50
2023-03-29T17:41:09.958Z,4.07
2023-03-29T17:43:36.920Z,3.67
2023-03-29T17:46:05.857Z,3.65
2023-03-29T17:48:34.442Z,4.18
2023-03-29T17:51:04.026Z,4.63
2023-03-29T17:53:31.148Z,4.25
2023-03-29T17:55:58.078Z,3.65
2023-03-29T17:58:25.087Z,4.15
2023-03-29T18:00:52.157Z,3.72
2023-03-29T18:03:19.105Z,4.07
2023-03-29T18:05:46.097Z,3.47
2023-03-29T18:08:14.783Z,4.30
2023-03-29T18:10:41.769Z,4.03
2023-03-29T18:13:13.713Z,3.65
2023-03-29T18:15:40.667Z,3.50
2023-03-29T18:18:07.924Z,3.70
2023-03-29T18:20:34.966Z,5.10
2023-03-29T18:23:01.999Z,4.55
2023-03-29T18:25:29.450Z,3.97
2023-03-29T18:27:56.470Z,4.30
2023-03-29T18:30:23.434Z,3.25
2023-03-29T18:32:50.392Z,4.50
2023-03-29T18:35:17.486Z,4.78
2023-03-29T18:37:44.472Z,5.80
2023-03-29T18:40:11.939Z,5.10
2023-03-29T18:42:38.918Z,4.63
2023-03-29T18:45:06.466Z,4.18
2023-03-29T18:47:33.541Z,5.30
2023-03-29T18:50:02.409Z,5.88
2023-03-29T18:52:29.397Z,5.00
2023-03-29T18:54:56.338Z,5.70
2023-03-29T18:57:23.403Z,4.72
2023-03-29T18:59:50.402Z,4.20
2023-03-29T19:02:17.424Z,5.28
2023-03-29T19:04:44.523Z,4.72
2023-03-29T19:07:11.674Z,4.93
2023-03-29T19:09:38.707Z,4.90
2023-03-29T19:12:06.124Z,4.70
2023-03-29T19:14:33.054Z,3.90
2023-03-29T19:16:59.926Z,4.20
2023-03-29T19:19:27.168Z,3.30
2023-03-29T19:21:54.905Z,3.90
2023-03-29T19:24:22.037Z,3.60
2023-03-29T19:26:51.456Z,3.08
2023-03-29T19:29:18.454Z,3.22
2023-03-29T19:31:45.782Z,3.30
2023-03-29T19:34:12.866Z,3.75
2023-03-29T19:36:39.898Z,3.20
2023-03-29T19:39:07.206Z,3.13
2023-03-29T19:41:34.367Z,3.38
2023-03-29T19:44:01.473Z,3.17
2023-03-29T19:46:29.054Z,3.20
2023-03-29T19:48:56.784Z,3.10
2023-03-29T19:51:26.714Z,2.90
2023-03-29T19:53:55.569Z,3.10
2023-03-29T19:56:25.700Z,3.40
2023-03-29T19:58:52.990Z,3.40
2023-03-29T20:01:20.968Z,3.40
2023-03-29T20:03:49.579Z,3.60
2023-03-29T20:06:18.909Z,3.92
2023-03-29T20:08:46.960Z,3.60
2023-03-29T20:11:15.606Z,3.85
2023-03-29T20:13:44.917Z,3.70
2023-03-29T20:16:16.804Z,4.03
2023-03-29T20:18:45.519Z,3.92
2023-03-29T20:21:16.960Z,3.83
2023-03-29T20:23:44.811Z,4.13
2023-03-29T20:26:11.848Z,4.50
2023-03-29T20:28:39.279Z,3.90
2023-03-29T20:31:11.003Z,3.95
2023-03-29T20:33:39.387Z,4.22
2023-03-29T20:36:08.430Z,4.30
2023-03-29T20:38:35.875Z,4.53
2023-03-29T20:41:08.918Z,4.43
2023-03-29T20:43:37.761Z,4.60
2023-03-29T20:46:14.385Z,4.18
2023-03-29T20:48:53.227Z,4.60
2023-03-29T20:51:30.360Z,4.55
2023-03-29T20:54:04.449Z,4.50
2023-03-29T20:56:42.084Z,4.22
2023-03-29T20:59:12.592Z,4.55
2023-03-29T21:01:42.500Z,3.95
2023-03-29T21:04:10.862Z,3.78
2023-03-29T21:06:39.538Z,3.65
2023-03-29T21:09:07.033Z,3.90
2023-03-29T21:11:34.025Z,3.70
2023-03-29T21:14:01.373Z,3.70
2023-03-29T21:16:29.122Z,4.03
2023-03-29T21:18:56.645Z,4.35
2023-03-29T21:21:23.644Z,3.90
2023-03-29T21:23:50.625Z,4.15
2023-03-29T21:26:18.075Z,4.03
2023-03-29T21:28:45.041Z,3.88
2023-03-29T21:31:12.055Z,4.47
2023-03-29T21:33:39.100Z,4.22
2023-03-29T21:36:06.416Z,3.90
2023-03-29T21:38:33.507Z,3.90
2023-03-29T21:41:00.937Z,3.85
2023-03-29T21:43:28.043Z,4.00
2023-03-29T21:45:57.420Z,3.60
2023-03-29T21:48:24.431Z,4.25
2023-03-29T21:50:51.392Z,3.78
2023-03-29T21:53:18.439Z,3.90
2023-03-29T21:55:49.352Z,4.07
2023-03-29T21:58:16.980Z,3.38
2023-03-29T22:00:45.964Z,3.28
2023-03-29T22:03:15.832Z,4.30
2023-03-29T22:05:44.326Z,3.42
2023-03-29T22:08:11.713Z,3.80
2023-03-29T22:10:41.472Z,4.03
2023-03-29T22:13:09.227Z,4.10
2023-03-29T22:15:38.854Z,3.85
2023-03-29T22:18:05.964Z,3.70
2023-03-29T22:20:34.184Z,3.50
2023-03-29T22:23:01.207Z,3.90
2023-03-29T22:25:28.161Z,3.47
2023-03-29T22:27:55.161Z,3.35
2023-03-29T22:30:22.762Z,3.30
2023-03-29T22:32:49.754Z,3.22
2023-03-29T22:35:16.979Z,3.30
2023-03-29T22:37:44.154Z,3.28
2023-03-29T22:40:13.143Z,3.25
2023-03-29T22:42:40.264Z,3.08
2023-03-29T22:45:08.227Z,3.70
2023-03-29T22:47:35.460Z,3.15
2023-03-29T22:50:02.569Z,3.33
2023-03-29T22:52:29.498Z,3.28
2023-03-29T22:54:56.434Z,2.92
2023-03-29T22:57:23.489Z,2.67
2023-03-29T22:59:50.478Z,3.28
2023-03-29T23:02:17.541Z,3.05
2023-03-29T23:04:45.511Z,3.00
2023-03-29T23:07:12.597Z,3.00
2023-03-29T23:09:39.499Z,2.85
2023-03-29T23:12:07.146Z,2.95
2023-03-29T23:14:34.598Z,2.90
2023-03-29T23:17:01.581Z,2.60
2023-03-29T23:19:28.504Z,3.05
2023-03-29T23:21:55.433Z,2.90
2023-03-29T23:24:22.767Z,2.55
2023-03-29T23:26:49.680Z,2.92
2023-03-29T23:29:16.570Z,3.13
2023-03-29T23:31:44.202Z,2.40
2023-03-29T23:34:11.295Z,2.88
2023-03-29T23:36:38.203Z,2.70
2023-03-29T23:39:07.882Z,2.75
2023-03-29T23:41:34.831Z,2.72
2023-03-29T23:44:03.747Z,2.63
2023-03-29T23:46:31.344Z,2.70
2023-03-29T23:48:58.878Z,3.03
2023-03-29T23:51:28.279Z,2.90
2023-03-29T23:53:56.781Z,2.97
2023-03-29T23:56:24.227Z,2.78
2023-03-29T23:58:51.704Z,2.70
